Time;durP1;ratioP1;P1;durP2;ratioP2;P2;SDS_P1;SDS_P2;PMS_P1;PMS_P2;Temp;Humidity;BMP_temperature;BMP_pressure;BME280_temperature;BME280_humidity;BME280_pressure;Samples;Min_cycle;Max_cycle;Signal;HPM_P1;HPM_P2
2022/09/27 00:00:05;;;;;;;2.23;1.23;;;;;;;13.59;59.63;98843.13;5072318;28;20270;-34
2022/09/27 00:02:31;;;;;;;2.42;1.48;;;;;;;13.59;59.99;98844.91;5069821;28;20318;-34
2022/09/27 00:04:57;;;;;;;2.88;1.42;;;;;;;13.58;60.04;98843.19;5070584;28;20166;-34
2022/09/27 00:07:23;;;;;;;2.42;1.40;;;;;;;13.58;60.13;98833.44;5073888;28;20503;-34
2022/09/27 00:09:49;;;;;;;2.28;1.33;;;;;;;13.57;60.07;98826.44;5075175;28;20085;-34
2022/09/27 00:12:14;;;;;;;3.47;1.48;;;;;;;13.57;60.05;98833.53;5058782;28;20422;-34
2022/09/27 00:14:39;;;;;;;2.70;1.40;;;;;;;13.54;59.91;98821.28;5080298;28;20033;-34
2022/09/27 00:17:05;;;;;;;2.60;1.37;;;;;;;13.54;59.83;98820.44;5075224;28;20028;-34
2022/09/27 00:19:30;;;;;;;2.10;1.30;;;;;;;13.55;60.02;98817.72;5071221;28;20284;-34
2022/09/27 00:21:55;;;;;;;2.87;1.40;;;;;;;13.53;60.10;98813.41;5064066;28;20033;-34
2022/09/27 00:24:22;;;;;;;2.80;1.33;;;;;;;13.54;60.14;98804.56;5068741;28;20298;-34
2022/09/27 00:26:48;;;;;;;3.45;1.40;;;;;;;13.52;60.15;98796.69;5043644;28;20124;-34
2022/09/27 00:29:16;;;;;;;3.83;1.33;;;;;;;13.51;60.41;98800.28;5067859;28;20089;-34
2022/09/27 00:31:41;;;;;;;2.10;1.33;;;;;;;13.51;60.33;98788.81;5067790;28;20071;-34
2022/09/27 00:34:07;;;;;;;3.58;1.30;;;;;;;13.50;60.31;98782.66;5070179;28;20044;-34
2022/09/27 00:36:33;;;;;;;2.92;1.40;;;;;;;13.49;60.26;98780.94;5053766;28;20020;-34
2022/09/27 00:38:59;;;;;;;3.25;1.33;;;;;;;13.49;60.34;98777.44;5052465;28;20051;-34
2022/09/27 00:41:30;;;;;;;3.13;1.23;;;;;;;13.48;60.19;98768.63;5077596;28;20066;-34
2022/09/27 00:44:00;;;;;;;2.38;1.30;;;;;;;13.46;60.32;98766.03;5068616;28;20021;-34
2022/09/27 00:46:31;;;;;;;1.77;1.20;;;;;;;13.43;61.17;98752.97;5069752;28;20058;-34
2022/09/27 00:49:05;;;;;;;3.80;1.48;;;;;;;13.41;60.69;98752.16;5077330;28;20077;-34
2022/09/27 00:51:32;;;;;;;1.95;1.15;;;;;;;13.40;60.54;98753.13;5069737;28;20031;-34
2022/09/27 00:53:58;;;;;;;3.65;1.42;;;;;;;13.39;60.57;98750.53;5055093;28;20054;-34
2022/09/27 00:56:26;;;;;;;2.10;1.40;;;;;;;13.38;60.84;98752.34;5072888;28;20434;-34
2022/09/27 00:58:57;;;;;;;3.08;1.50;;;;;;;13.38;60.47;98749.72;5057561;28;20029;-34
2022/09/27 01:01:22;;;;;;;2.28;1.15;;;;;;;13.36;60.45;98748.91;5069667;28;20035;-34
2022/09/27 01:03:54;;;;;;;2.70;1.37;;;;;;;13.35;60.37;98753.34;5060490;28;20016;-34
2022/09/27 01:06:21;;;;;;;4.80;1.42;;;;;;;13.35;60.42;98740.09;5067278;28;20282;-34
2022/09/27 01:09:11;;;;;;;3.15;1.20;;;;;;;13.34;60.38;98735.75;5066440;28;20589;-34
2022/09/27 01:12:07;;;;;;;1.90;1.20;;;;;;;13.33;60.27;98738.47;5070084;28;20301;-34
2022/09/27 01:14:32;;;;;;;;;;;;;;;13.32;60.67;98734.13;5070195;28;20054;-34
2022/09/27 01:17:07;;;;;;;2.70;1.30;;;;;;;13.30;60.62;98734.19;5060759;28;19917;-34
2022/09/27 01:20:30;;;;;;;2.65;1.50;;;;;;;13.30;61.10;98733.34;5061161;28;20031;-34
2022/09/27 01:23:07;;;;;;;2.08;1.13;;;;;;;13.28;60.79;98724.63;5025493;28;20030;-34
2022/09/27 01:25:56;;;;;;;2.08;1.23;;;;;;;13.27;60.77;98721.13;5061486;28;20136;-34
2022/09/27 01:28:44;;;;;;;3.47;1.30;;;;;;;13.26;60.74;98722.06;5071685;28;20082;-34
2022/09/27 01:31:46;;;;;;;3.20;1.45;;;;;;;13.26;60.74;98715.91;5067956;28;20024;-34
2022/09/27 01:34:22;;;;;;;3.00;1.35;;;;;;;13.25;60.67;98707.13;5068940;28;20246;-34
2022/09/27 01:37:26;;;;;;;1.80;1.10;;;;;;;13.25;60.82;98700.97;5071284;28;20040;-34
2022/09/27 01:40:01;;;;;;;2.20;1.30;;;;;;;13.24;60.71;98696.63;5061795;28;20044;-34
2022/09/27 01:42:46;;;;;;;2.58;1.42;;;;;;;13.21;60.75;98698.47;5071003;28;20024;-34
2022/09/27 01:45:22;;;;;;;1.90;1.15;;;;;;;13.23;60.99;98702.84;5063679;28;20554;-34
2022/09/27 01:48:03;;;;;;;2.85;1.52;;;;;;;13.21;61.79;98687.88;5072977;28;20392;-34
2022/09/27 01:50:38;;;;;;;3.45;1.38;;;;;;;13.21;61.85;98701.13;5063809;28;20046;-34
2022/09/27 01:53:19;;;;;;;2.65;1.10;;;;;;;13.21;61.41;98693.16;5068787;28;20162;-34
2022/09/27 01:55:45;;;;;;;2.05;1.30;;;;;;;13.19;62.18;98684.47;5050043;28;20021;-34
2022/09/27 01:58:35;;;;;;;2.38;1.45;;;;;;;13.20;62.00;98683.53;5059483;28;20086;-34
2022/09/27 02:01:01;;;;;;;2.30;1.00;;;;;;;13.18;62.65;98681.91;5072262;28;20028;-34
2022/09/27 02:03:31;;;;;;;2.83;1.17;;;;;;;13.16;62.88;98679.34;5059440;28;20032;-34
2022/09/27 02:06:06;;;;;;;2.50;1.17;;;;;;;13.15;62.64;98677.63;5055328;28;20040;-34
2022/09/27 02:08:38;;;;;;;1.70;1.10;;;;;;;13.13;62.34;98668.91;5081349;28;20032;-34
2022/09/27 02:11:08;;;;;;;1.60;1.10;;;;;;;13.15;62.17;98661.75;5070548;28;20510;-34
2022/09/27 02:13:46;;;;;;;2.78;1.05;;;;;;;13.15;61.44;98664.41;5058823;28;20518;-34
2022/09/27 02:16:43;;;;;;;1.58;0.90;;;;;;;13.15;61.36;98661.75;5072454;28;20165;-33
2022/09/27 02:19:41;;;;;;;1.95;1.00;;;;;;;13.12;61.83;98664.53;5062760;28;20042;-32
2022/09/27 02:22:14;;;;;;;2.67;1.00;;;;;;;13.12;61.94;98661.03;5069060;28;20028;-33
2022/09/27 02:25:06;;;;;;;2.60;1.10;;;;;;;13.10;61.40;98650.53;5071423;28;20127;-34
2022/09/27 02:27:39;;;;;;;2.00;1.10;;;;;;;13.10;61.97;98653.16;5060309;28;20475;-34
2022/09/27 02:30:10;;;;;;;1.83;1.15;;;;;;;13.11;61.38;98651.41;5063787;28;20364;-34
2022/09/27 02:32:36;;;;;;;2.13;1.10;;;;;;;13.11;61.44;98651.41;5070995;28;20383;-34
2022/09/27 02:35:16;;;;;;;2.92;1.13;;;;;;;13.07;62.29;98648.91;5067002;28;20107;-34
2022/09/27 02:37:42;;;;;;;2.25;0.98;;;;;;;13.06;62.55;98649.84;5064500;28;20054;-34
2022/09/27 02:40:07;;;;;;;1.88;1.10;;;;;;;13.05;62.60;98641.97;5070734;28;20037;-33
2022/09/27 02:42:33;;;;;;;2.47;1.08;;;;;;;13.04;62.60;98642.94;5056501;28;20541;-33
2022/09/27 02:44:59;;;;;;;2.35;1.20;;;;;;;13.03;62.92;98641.19;5083762;28;20081;-33
2022/09/27 02:47:57;;;;;;;1.48;0.90;;;;;;;13.01;63.49;98637.78;5067633;28;20028;-33
2022/09/27 02:50:41;;;;;;;1.25;0.80;;;;;;;13.00;63.97;98636.09;5061501;28;20391;-33
2022/09/27 02:53:18;;;;;;;1.27;0.75;;;;;;;12.98;63.68;98637.94;5069379;28;20032;-33
2022/09/27 02:56:13;;;;;;;1.45;0.90;;;;;;;12.96;63.56;98636.25;5069630;28;20355;-33
2022/09/27 02:59:22;;;;;;;1.40;0.77;;;;;;;12.95;63.30;98639.78;5060108;28;20547;-33
2022/09/27 03:02:06;;;;;;;1.63;0.85;;;;;;;12.93;63.61;98635.53;5059544;28;20044;-33
2022/09/27 03:04:47;;;;;;;1.42;0.98;;;;;;;12.93;63.71;98624.94;5065213;28;20025;-33
2022/09/27 03:07:13;;;;;;;1.00;0.60;;;;;;;12.91;63.72;98632.94;5069118;28;20036;-33
2022/09/27 03:09:45;;;;;;;1.30;0.75;;;;;;;12.89;63.73;98618.97;5066215;28;20044;-33
2022/09/27 03:12:10;;;;;;;1.60;0.88;;;;;;;12.87;64.04;98623.47;5066434;28;20017;-33
2022/09/27 03:14:36;;;;;;;1.35;0.80;;;;;;;12.88;63.74;98622.56;5058884;28;20028;-33
2022/09/27 03:20:22;;;;;;;1.50;0.65;;;;;;;12.87;64.03;98626.13;5070256;28;20317;-33
2022/09/27 03:22:48;;;;;;;1.35;0.70;;;;;;;12.86;64.95;98623.53;5092927;22;20049;-37
2022/09/27 03:25:13;;;;;;;1.67;0.70;;;;;;;12.83;64.68;98629.84;5057374;28;20064;-37
2022/09/27 03:27:39;;;;;;;1.90;0.70;;;;;;;12.81;64.93;98631.75;5067004;28;20287;-37
2022/09/27 03:30:05;;;;;;;1.40;0.60;;;;;;;12.81;64.40;98631.75;5069623;28;20606;-37
2022/09/27 03:32:31;;;;;;;1.05;0.60;;;;;;;12.81;63.96;98629.94;5071200;28;20737;-37
2022/09/27 03:34:56;;;;;;;1.65;0.80;;;;;;;12.80;65.30;98619.41;5057606;28;20039;-37
2022/09/27 03:37:22;;;;;;;1.40;0.70;;;;;;;12.80;64.37;98630.00;5042492;28;20029;-37
2022/09/27 03:39:47;;;;;;;1.77;0.90;;;;;;;12.80;64.07;98617.66;5037062;28;20086;-37
2022/09/27 03:42:12;;;;;;;2.30;0.80;;;;;;;12.80;64.10;98609.72;5026072;28;20044;-37
2022/09/27 03:44:38;;;;;;;1.30;0.80;;;;;;;12.81;63.58;98618.50;5028907;28;20334;-37
2022/09/27 03:47:03;;;;;;;1.40;0.77;;;;;;;12.80;63.96;98608.84;5041095;28;20282;-37
2022/09/27 03:49:29;;;;;;;1.40;0.70;;;;;;;12.79;63.96;98608.00;5044808;28;20108;-37
2022/09/27 03:51:55;;;;;;;1.10;0.60;;;;;;;12.78;64.29;98610.72;5029621;28;20294;-37
2022/09/27 03:54:20;;;;;;;1.83;0.85;;;;;;;12.77;64.88;98611.66;5041851;28;20288;-37
2022/09/27 03:56:46;;;;;;;1.60;0.80;;;;;;;12.74;64.78;98604.72;5046807;28;20399;-37
2022/09/27 03:59:11;;;;;;;1.43;0.80;;;;;;;12.73;64.55;98596.91;5046747;28;20291;-37
2022/09/27 04:01:37;;;;;;;1.60;0.80;;;;;;;12.71;65.07;98604.91;5044152;28;20201;-37
2022/09/27 04:04:03;;;;;;;1.58;0.73;;;;;;;12.70;65.52;98600.53;5032562;28;20392;-36
2022/09/27 04:06:29;;;;;;;1.50;0.77;;;;;;;12.69;65.51;98594.41;5042850;28;20037;-37
2022/09/27 04:08:54;;;;;;;2.20;0.80;;;;;;;12.68;65.35;98595.31;5049580;28;20053;-37
2022/09/27 04:11:20;;;;;;;1.83;1.07;;;;;;;12.68;65.78;98594.47;5027733;28;20032;-37
2022/09/27 04:13:48;;;;;;;1.40;1.00;;;;;;;12.66;66.20;98597.19;5042370;28;20342;-36
2022/09/27 04:16:13;;;;;;;1.85;0.80;;;;;;;12.67;65.90;98590.13;5023532;28;20126;-36
2022/09/27 04:18:40;;;;;;;1.38;0.80;;;;;;;12.68;64.84;98594.47;5055482;28;20467;-36
2022/09/27 04:21:05;;;;;;;1.50;0.80;;;;;;;12.69;65.63;98590.88;5047528;28;20025;-36
2022/09/27 04:23:32;;;;;;;1.15;0.60;;;;;;;12.67;65.90;98593.59;5053682;28;20047;-36
2022/09/27 04:25:58;;;;;;;2.90;0.90;;;;;;;12.65;65.97;98590.22;5055940;28;20155;-36
2022/09/27 04:28:24;;;;;;;1.23;0.70;;;;;;;12.63;65.17;98586.78;5051163;28;20029;-35
2022/09/27 04:30:49;;;;;;;1.50;0.80;;;;;;;12.65;65.14;98581.41;5066410;28;20102;-36
2022/09/27 04:33:14;;;;;;;3.90;1.10;;;;;;;12.65;65.45;98581.41;5055377;28;20064;-35
2022/09/27 04:38:25;;;;;;;1.48;0.82;;;;;;;12.62;66.20;98584.19;5066353;28;20525;-36
2022/09/27 04:40:50;;;;;;;1.10;0.73;;;;;;;12.63;65.13;98581.47;5040136;28;20033;-36
2022/09/27 04:43:17;;;;;;;1.73;1.00;;;;;;;12.64;65.05;98582.34;5044028;28;20292;-37
2022/09/27 04:45:43;;;;;;;1.60;0.80;;;;;;;12.63;64.77;98581.47;5044343;28;20375;-37
2022/09/27 04:48:08;;;;;;;1.20;0.80;;;;;;;12.65;64.83;98587.56;5038136;28;20144;-37
2022/09/27 04:50:34;;;;;;;1.38;0.90;;;;;;;12.65;65.14;98590.22;5016768;28;20396;-37
2022/09/27 04:52:59;;;;;;;1.33;0.70;;;;;;;12.63;65.68;98583.25;5055404;28;20052;-35
2022/09/27 04:55:26;;;;;;;1.67;0.80;;;;;;;12.64;65.42;98587.63;5038075;28;20311;-36
2022/09/27 04:57:53;;;;;;;1.98;0.70;;;;;;;12.63;65.70;98592.06;5049768;28;20505;-36
2022/09/27 05:00:18;;;;;;;1.95;1.00;;;;;;;12.63;64.99;98581.47;5061211;28;20441;-36
2022/09/27 05:02:45;;;;;;;1.17;0.77;;;;;;;12.62;65.54;98587.72;5032317;28;20045;-36
2022/09/27 05:05:10;;;;;;;1.52;0.80;;;;;;;12.61;65.77;98588.66;5051555;28;20395;-36
2022/09/27 05:07:37;;;;;;;1.95;0.90;;;;;;;12.61;65.62;98586.00;5061916;28;20498;-36
2022/09/27 05:10:03;;;;;;;2.13;0.73;;;;;;;12.61;64.91;98583.38;5054808;28;20032;-36
2022/09/27 05:12:28;;;;;;;1.60;0.80;;;;;;;12.62;65.73;98586.84;5035787;28;20025;-36
2022/09/27 05:14:53;;;;;;;1.30;0.80;;;;;;;12.61;65.63;98593.94;5061371;28;20513;-36
2022/09/27 05:17:19;;;;;;;1.70;0.80;;;;;;;12.60;65.48;98594.84;5049963;28;20322;-36
2022/09/27 05:19:45;;;;;;;1.33;0.70;;;;;;;12.60;65.71;98589.56;5058602;28;20354;-36
2022/09/27 05:22:10;;;;;;;1.47;0.70;;;;;;;12.61;65.49;98587.78;5065626;28;20035;-36
2022/09/27 05:24:37;;;;;;;1.58;0.73;;;;;;;12.59;65.37;98593.16;5073478;28;20048;-36
2022/09/27 05:27:03;;;;;;;2.05;0.90;;;;;;;12.59;65.57;98593.16;5035198;28;20490;-36
2022/09/27 05:29:28;;;;;;;1.10;0.60;;;;;;;12.59;65.81;98595.78;5053427;28;20037;-36
2022/09/27 05:31:54;;;;;;;1.60;0.80;;;;;;;12.59;65.64;98590.50;5053592;28;20033;-36
2022/09/27 05:34:19;;;;;;;1.52;0.70;;;;;;;12.59;65.59;98601.09;5061428;28;20021;-36
2022/09/27 05:36:49;;;;;;;2.70;0.75;;;;;;;12.59;65.29;98590.50;5054500;28;20021;-36
2022/09/27 05:39:18;;;;;;;1.90;0.80;;;;;;;12.57;65.08;98600.28;5050614;28;20391;-36
2022/09/27 05:41:46;;;;;;;1.55;0.93;;;;;;;12.58;65.53;98609.97;5058741;28;20020;-36
2022/09/27 05:44:12;;;;;;;1.70;0.80;;;;;;;12.59;65.77;98609.00;5058074;28;20028;-35
2022/09/27 05:46:38;;;;;;;1.60;0.70;;;;;;;12.57;66.10;98602.94;5054204;28;20032;-36
2022/09/27 05:49:03;;;;;;;1.10;0.70;;;;;;;12.55;65.74;98605.69;5035660;28;20032;-36
2022/09/27 05:51:29;;;;;;;1.30;0.60;;;;;;;12.55;65.42;98604.81;5053616;28;20029;-36
2022/09/27 05:53:54;;;;;;;2.23;0.70;;;;;;;12.58;65.84;98604.66;5017582;28;20020;-35
2022/09/27 05:56:20;;;;;;;1.48;0.80;;;;;;;12.58;66.11;98605.50;5054713;28;20623;-36
2022/09/27 05:58:48;;;;;;;2.03;0.70;;;;;;;12.56;65.77;98609.16;5040969;28;20033;-36
2022/09/27 06:01:13;;;;;;;1.08;0.68;;;;;;;12.56;66.54;98601.22;5016583;28;20288;-36
2022/09/27 06:03:39;;;;;;;1.43;0.70;;;;;;;12.55;66.02;98600.41;5018691;28;20036;-36
2022/09/27 06:06:06;;;;;;;1.52;0.80;;;;;;;12.55;67.05;98602.19;5053336;28;20321;-36
2022/09/27 06:08:37;;;;;;;1.50;0.70;;;;;;;12.54;67.17;98608.41;5051415;28;20025;-36
2022/09/27 06:11:06;;;;;;;1.30;0.70;;;;;;;12.51;67.85;98609.38;5057284;28;20024;-36
2022/09/27 06:13:38;;;;;;;1.13;0.63;;;;;;;12.49;67.86;98600.69;5016740;28;20411;-36
2022/09/27 06:16:04;;;;;;;1.13;0.60;;;;;;;12.50;68.08;98601.56;5034902;28;20029;-36
2022/09/27 06:18:31;;;;;;;1.30;0.60;;;;;;;12.48;68.30;98603.41;5035410;28;20036;-36
2022/09/27 06:21:02;;;;;;;1.33;0.73;;;;;;;12.48;68.18;98603.41;5053049;28;20037;-35
2022/09/27 06:23:31;;;;;;;1.25;0.68;;;;;;;12.49;68.67;98610.41;5047848;28;20028;-36
2022/09/27 06:26:01;;;;;;;1.17;0.70;;;;;;;12.51;68.16;98604.09;5055029;28;20029;-35
2022/09/27 06:28:26;;;;;;;1.35;0.60;;;;;;;12.48;68.51;98599.00;5033536;28;20095;-35
2022/09/27 06:30:52;;;;;;;1.60;0.68;;;;;;;12.51;68.55;98598.81;5033045;28;20031;-36
2022/09/27 06:33:19;;;;;;;1.83;0.93;;;;;;;12.52;69.00;98594.41;5046321;28;20525;-36
2022/09/27 06:35:46;;;;;;;1.40;0.80;;;;;;;12.51;68.93;98597.97;5052655;28;20108;-36
2022/09/27 06:38:14;;;;;;;1.42;0.80;;;;;;;12.53;68.86;98604.03;5033945;28;20040;-36
2022/09/27 06:40:44;;;;;;;2.55;0.80;;;;;;;12.55;68.77;98605.69;5055786;28;20025;-36
2022/09/27 06:43:11;;;;;;;1.30;0.70;;;;;;;12.55;69.43;98594.25;5051995;28;20494;-36
2022/09/27 06:45:36;;;;;;;2.42;0.82;;;;;;;12.56;69.20;98606.53;5034654;28;20044;-36
2022/09/27 06:48:06;;;;;;;1.35;0.63;;;;;;;12.58;69.37;98599.38;5052550;28;20490;-36
2022/09/27 06:50:35;;;;;;;1.58;1.00;;;;;;;12.60;69.44;98602.78;5033709;28;20536;-36
2022/09/27 06:53:02;;;;;;;1.60;0.80;;;;;;;12.62;69.21;98603.56;5038789;28;20033;-36
2022/09/27 06:55:27;;;;;;;1.73;0.75;;;;;;;12.64;69.51;98617.56;5060647;28;20131;-36
2022/09/27 07:00:41;;;;;;;1.90;0.80;;;;;;;12.67;69.80;98624.50;5026742;28;20779;-36
2022/09/27 07:03:13;;;;;;;1.40;0.80;;;;;;;12.67;69.32;98608.63;5059633;28;20028;-36
2022/09/27 07:05:41;;;;;;;2.33;0.82;;;;;;;12.68;69.89;98621.75;5054186;28;20509;-36
2022/09/27 07:08:08;;;;;;;1.38;0.80;;;;;;;12.70;69.62;98617.25;5072961;28;20132;-36
2022/09/27 07:10:36;;;;;;;2.47;0.90;;;;;;;12.72;69.67;98626.91;5054315;28;20035;-36
2022/09/27 07:13:06;;;;;;;1.60;0.98;;;;;;;12.74;69.71;98619.75;5054017;28;20479;-36
2022/09/27 07:15:35;;;;;;;1.80;0.80;;;;;;;12.77;69.16;98635.47;5025249;28;20039;-36
2022/09/27 07:18:01;;;;;;;1.67;0.95;;;;;;;12.77;69.02;98624.91;5050170;28;20032;-36
2022/09/27 07:20:28;;;;;;;1.45;1.00;;;;;;;12.77;69.24;98624.91;5054539;28;20032;-36
2022/09/27 07:22:53;;;;;;;2.05;1.00;;;;;;;12.78;68.69;98629.25;5038272;28;20020;-36
2022/09/27 07:25:19;;;;;;;2.35;1.17;;;;;;;12.79;68.65;98646.81;5071764;28;20028;-36
2022/09/27 07:27:44;;;;;;;1.73;1.05;;;;;;;12.80;68.60;98632.66;5071960;28;20029;-36
2022/09/27 07:30:11;;;;;;;1.63;0.70;;;;;;;12.82;68.12;98642.25;5039455;28;20025;-36
2022/09/27 07:32:37;;;;;;;1.75;0.90;;;;;;;12.83;67.92;98633.38;5041745;28;20272;-36
2022/09/27 07:35:03;;;;;;;2.03;0.90;;;;;;;12.85;68.15;98633.28;5033909;28;20560;-36
2022/09/27 07:37:34;;;;;;;2.13;0.82;;;;;;;12.84;67.91;98631.59;5054737;28;20045;-36
2022/09/27 07:40:00;;;;;;;1.30;0.90;;;;;;;12.88;68.13;98643.72;5063847;28;20370;-36
2022/09/27 07:42:27;;;;;;;1.90;0.90;;;;;;;12.89;67.65;98628.69;5063940;28;20454;-36
2022/09/27 07:44:56;;;;;;;1.85;0.70;;;;;;;12.89;67.42;98645.41;5058671;28;20064;-36
2022/09/27 07:47:26;;;;;;;1.30;0.82;;;;;;;12.89;67.73;98640.13;5051906;28;20017;-36
2022/09/27 07:49:52;;;;;;;1.60;0.80;;;;;;;12.90;67.63;98655.06;5034942;28;20043;-36
2022/09/27 07:52:19;;;;;;;1.08;0.70;;;;;;;12.91;67.61;98659.41;5017615;28;20499;-36
2022/09/27 07:54:45;;;;;;;1.65;0.80;;;;;;;12.94;67.62;98656.63;5052429;28;20074;-36
2022/09/27 07:57:12;;;;;;;2.28;0.88;;;;;;;12.96;67.52;98656.53;5041704;28;20433;-36
2022/09/27 07:59:38;;;;;;;1.27;0.73;;;;;;;12.98;67.59;98669.69;5066557;28;20386;-36
2022/09/27 08:02:03;;;;;;;1.77;0.80;;;;;;;12.98;67.67;98670.56;5040995;28;20025;-36
2022/09/27 08:04:28;;;;;;;1.40;0.77;;;;;;;12.98;67.68;98669.69;5037564;28;20056;-36
2022/09/27 08:06:54;;;;;;;1.50;0.80;;;;;;;12.98;67.86;98667.03;5051638;28;20275;-36
2022/09/27 08:09:19;;;;;;;1.45;0.70;;;;;;;13.00;67.60;98673.13;5026565;28;20341;-36
2022/09/27 08:11:44;;;;;;;1.93;0.77;;;;;;;13.01;67.78;98666.91;5044283;28;20377;-36
2022/09/27 08:14:10;;;;;;;1.30;0.82;;;;;;;13.01;67.93;98664.25;5072048;28;20267;-36
2022/09/27 08:16:35;;;;;;;1.10;0.60;;;;;;;13.02;67.84;98665.94;5069540;28;20057;-35
2022/09/27 08:19:00;;;;;;;2.37;0.50;;;;;;;13.02;67.83;98673.88;5055696;28;20071;-36
2022/09/27 08:21:26;;;;;;;1.40;0.80;;;;;;;13.03;67.66;98678.25;5055388;28;20275;-36
2022/09/27 08:23:52;;;;;;;1.10;0.77;;;;;;;13.04;67.69;98669.38;5020552;28;20839;-36
2022/09/27 08:26:18;;;;;;;1.50;0.60;;;;;;;13.05;67.39;98679.03;5058572;28;20028;-36
2022/09/27 08:28:43;;;;;;;1.50;0.90;;;;;;;13.06;67.20;98688.66;5061773;28;20054;-36
2022/09/27 08:31:08;;;;;;;1.70;0.95;;;;;;;13.08;67.16;98692.13;5034502;28;20035;-35
2022/09/27 08:33:34;;;;;;;1.80;0.80;;;;;;;13.09;66.75;98686.75;5035163;28;20060;-36
2022/09/27 08:36:00;;;;;;;1.27;0.87;;;;;;;13.12;66.76;98690.16;5035455;28;20260;-36
2022/09/27 08:38:25;;;;;;;1.60;1.00;;;;;;;13.11;66.65;98684.03;5035402;28;20272;-36
2022/09/27 08:41:02;;;;;;;2.00;0.80;;;;;;;13.13;66.29;98692.72;5049068;28;20028;-36
2022/09/27 08:44:04;;;;;;;1.13;0.68;;;;;;;13.14;66.20;98689.13;5033693;28;20311;-36
2022/09/27 08:47:05;;;;;;;2.65;0.70;;;;;;;13.14;66.51;98694.41;5060306;28;20518;-36
2022/09/27 08:49:44;;;;;;;1.27;0.65;;;;;;;13.16;66.44;98703.16;4995253;28;20484;-37
2022/09/27 08:52:18;;;;;;;1.30;0.60;;;;;;;13.15;66.38;98730.56;5034619;28;20037;-36
2022/09/27 08:54:45;;;;;;;2.25;0.70;;;;;;;13.14;66.70;98744.72;5044928;28;20395;-36
2022/09/27 08:57:11;;;;;;;1.65;0.73;;;;;;;13.11;66.57;98746.66;5063842;28;20297;-37
2022/09/27 08:59:46;;;;;;;1.20;0.70;;;;;;;13.09;66.45;98747.63;5057028;28;20604;-37
2022/09/27 09:02:17;;;;;;;1.63;0.60;;;;;;;13.12;66.49;98751.88;5074994;28;20033;-37
2022/09/27 09:04:44;;;;;;;1.15;0.52;;;;;;;13.14;66.21;98757.94;5020454;28;20040;-37
2022/09/27 09:07:19;;;;;;;3.22;0.77;;;;;;;13.14;66.25;98755.28;5053386;28;20043;-36
2022/09/27 09:12:45;;;;;;;1.35;0.60;;;;;;;13.15;66.33;98756.16;5057740;28;20047;-36
2022/09/27 09:13:28;;;;;;;1.05;0.50;;;;;;;13.14;66.33;98755.28;5059773;28;20024;-37
2022/09/27 09:16:06;;;;;;;1.48;0.50;;;;;;;13.13;66.34;98764.19;5046158;28;20495;-37
2022/09/27 09:18:33;;;;;;;2.30;0.60;;;;;;;13.12;66.33;98762.47;5004521;28;20124;-37
2022/09/27 09:21:09;;;;;;;1.15;0.60;;;;;;;13.13;66.51;98761.53;5034461;28;20067;-37
2022/09/27 09:23:40;;;;;;;1.45;0.60;;;;;;;13.11;66.58;98773.13;5053348;23;20043;-32
2022/09/27 09:26:47;;;;;;;0.85;0.52;;;;;;;13.11;66.76;98768.72;5097940;28;20032;-32
2022/09/27 09:29:55;;;;;;;2.05;0.60;;;;;;;13.11;66.86;98770.50;5094539;28;20102;-32
2022/09/27 09:32:55;;;;;;;0.80;0.40;;;;;;;13.08;66.62;98772.34;5092689;28;20024;-32
2022/09/27 09:35:25;;;;;;;1.70;0.52;;;;;;;13.09;67.02;98782.00;5074942;28;20024;-32
2022/09/27 09:37:53;;;;;;;0.98;0.43;;;;;;;13.10;67.09;98777.56;5089633;28;20420;-32
2022/09/27 09:40:30;;;;;;;1.00;0.50;;;;;;;13.09;67.21;98782.00;5090569;28;20028;-32
2022/09/27 09:43:14;;;;;;;0.98;0.50;;;;;;;13.10;67.32;98785.50;5073721;28;20028;-32
2022/09/27 09:45:44;;;;;;;1.00;0.50;;;;;;;13.09;67.61;98783.78;5073331;28;20028;-32
2022/09/27 09:48:29;;;;;;;0.95;0.40;;;;;;;13.07;68.14;98785.66;5073588;28;20043;-32
2022/09/27 09:50:58;;;;;;;0.95;0.30;;;;;;;13.05;68.81;98790.19;5073927;28;20024;-32
2022/09/27 09:53:32;;;;;;;1.45;0.60;;;;;;;13.07;68.47;98796.22;5086376;28;20021;-32
2022/09/27 09:56:02;;;;;;;1.10;0.52;;;;;;;13.06;69.22;98791.88;5091653;28;20085;-32
2022/09/27 09:58:49;;;;;;;0.82;0.50;;;;;;;13.04;69.35;98796.41;5091609;28;20451;-32
2022/09/27 10:01:36;;;;;;;0.95;0.40;;;;;;;13.01;69.61;98791.25;5094012;28;20024;-32
2022/09/27 10:04:02;;;;;;;1.98;0.50;;;;;;;13.03;69.23;98795.53;5093767;28;20024;-32
2022/09/27 10:06:28;;;;;;;1.02;0.50;;;;;;;13.03;69.38;98798.19;5091055;28;20547;-32
2022/09/27 10:08:54;;;;;;;1.58;0.50;;;;;;;13.05;69.31;98795.47;5092256;28;20052;-32
2022/09/27 10:11:25;;;;;;;0.93;0.50;;;;;;;13.06;68.73;98792.75;5092697;28;20069;-32
2022/09/27 10:13:51;;;;;;;1.73;0.47;;;;;;;13.07;69.16;98794.47;5075256;28;20474;-32
2022/09/27 10:16:19;;;;;;;1.60;0.50;;;;;;;13.06;69.12;98799.81;5090123;28;20116;-32
2022/09/27 10:18:56;;;;;;;1.80;0.60;;;;;;;13.07;68.99;98791.81;5091782;28;20039;-32
2022/09/27 10:21:28;;;;;;;0.90;0.57;;;;;;;13.07;69.31;98796.22;5090871;28;20098;-32
2022/09/27 10:24:11;;;;;;;1.23;0.50;;;;;;;13.08;69.30;98792.69;5087413;28;20028;-32
2022/09/27 10:26:39;;;;;;;1.30;0.60;;;;;;;13.09;69.90;98794.38;5071882;28;20032;-32
2022/09/27 10:29:32;;;;;;;1.10;0.50;;;;;;;13.09;70.20;98794.38;5083181;28;20444;-32
2022/09/27 10:31:59;;;;;;;1.00;0.65;;;;;;;13.09;70.83;98795.25;5073773;28;20031;-32
2022/09/27 10:34:26;;;;;;;0.77;0.40;;;;;;;13.10;70.92;98801.38;5093098;28;20024;-32
2022/09/27 10:37:10;;;;;;;1.73;0.77;;;;;;;13.11;70.94;98805.75;5092423;28;20107;-32
2022/09/27 10:39:36;;;;;;;1.27;0.60;;;;;;;13.13;71.28;98811.81;5092861;28;20028;-32
2022/09/27 10:42:01;;;;;;;1.67;0.68;;;;;;;13.13;71.47;98806.53;5091594;28;20028;-32
2022/09/27 10:44:31;;;;;;;1.35;0.50;;;;;;;13.13;71.45;98803.88;5091273;28;20028;-32
2022/09/27 10:46:59;;;;;;;2.38;0.63;;;;;;;13.14;71.73;98815.34;5091848;28;20229;-32
2022/09/27 10:49:39;;;;;;;1.20;0.50;;;;;;;13.11;71.53;98808.41;5091832;28;20015;-32
2022/09/27 10:52:19;;;;;;;1.42;0.68;;;;;;;13.09;71.13;98811.13;5087129;28;20056;-32
2022/09/27 10:54:59;;;;;;;1.80;0.60;;;;;;;13.12;71.10;98812.75;5054694;28;20495;-32
2022/09/27 10:57:27;;;;;;;1.38;0.80;;;;;;;13.16;71.52;98811.69;5055177;28;20036;-32
2022/09/27 10:59:58;;;;;;;2.03;0.80;;;;;;;13.16;70.98;98813.44;5085895;28;20059;-32
2022/09/27 11:02:28;;;;;;;1.85;0.70;;;;;;;13.17;71.11;98818.66;5073841;28;20032;-32
2022/09/27 11:05:14;;;;;;;1.92;0.80;;;;;;;13.20;70.57;98818.53;5090709;28;20050;-32
2022/09/27 11:07:52;;;;;;;1.95;0.80;;;;;;;13.21;70.47;98820.22;5108664;28;20363;-32
2022/09/27 11:10:32;;;;;;;1.50;0.90;;;;;;;13.25;70.42;98830.69;5089337;28;20027;-32
2022/09/27 11:13:24;;;;;;;2.83;0.80;;;;;;;13.26;70.46;98822.66;5089276;28;20083;-32
2022/09/27 11:16:17;;;;;;;1.30;0.90;;;;;;;13.27;70.03;98827.00;5089192;28;20036;-32
2022/09/27 11:19:03;;;;;;;2.80;0.90;;;;;;;13.28;69.97;98827.88;5089844;28;20054;-32
2022/09/27 11:21:50;;;;;;;1.40;0.73;;;;;;;13.30;70.04;98826.00;5092437;28;20122;-32
2022/09/27 11:24:47;;;;;;;1.45;0.80;;;;;;;13.30;69.58;98826.88;5090675;28;20044;-32
2022/09/27 11:27:27;;;;;;;1.40;0.70;;;;;;;13.32;69.78;98821.50;5090929;28;20032;-32
2022/09/27 11:30:07;;;;;;;1.30;0.90;;;;;;;13.35;70.18;98826.66;5091868;28;20049;-32
2022/09/27 11:32:50;;;;;;;2.05;0.70;;;;;;;13.35;70.11;98822.19;5092256;28;20023;-32
2022/09/27 11:35:37;;;;;;;1.40;0.70;;;;;;;13.36;69.92;98817.75;5091268;28;20157;-32
2022/09/27 11:38:29;;;;;;;2.13;0.70;;;;;;;13.37;69.47;98815.97;5091966;28;20024;-32
2022/09/27 11:41:10;;;;;;;2.17;0.73;;;;;;;13.35;69.10;98813.41;5091817;28;20081;-32
2022/09/27 11:44:06;;;;;;;1.83;0.80;;;;;;;13.39;69.37;98809.66;5083768;28;20036;-32
2022/09/27 11:46:34;;;;;;;1.00;0.70;;;;;;;13.41;69.35;98813.06;5089406;28;20027;-32
2022/09/27 11:49:31;;;;;;;2.55;0.85;;;;;;;13.45;69.15;98811.13;5090834;28;20024;-32
2022/09/27 11:52:08;;;;;;;2.03;0.70;;;;;;;13.48;68.92;98800.41;5090978;28;20522;-32
2022/09/27 11:54:46;;;;;;;1.58;0.77;;;;;;;13.52;69.15;98803.75;5090653;28;20020;-32
2022/09/27 11:57:34;;;;;;;1.00;0.60;;;;;;;13.57;69.29;98822.94;5086059;28;20054;-31
2022/09/27 12:00:23;;;;;;;1.25;0.57;;;;;;;13.60;69.71;98814.81;5085110;28;20118;-32
2022/09/27 12:03:24;;;;;;;2.33;0.80;;;;;;;13.65;69.40;98809.28;5084058;28;20020;-32
2022/09/27 12:06:12;;;;;;;1.83;0.70;;;;;;;13.72;69.36;98815.97;5089415;28;20031;-32